sensor_id;sensor_type;location;lat;lon;timestamp;temperature;humidity
7588;DHT22;3835;48.850;8.938;2024-03-07T00:00:07;5.40;99.90
7588;DHT22;3835;48.850;8.938;2024-03-07T00:02:40;5.40;99.90
7588;DHT22;3835;48.850;8.938;2024-03-07T00:05:07;5.50;99.90
7588;DHT22;3835;48.850;8.938;2024-03-07T00:07:34;5.40;99.90
7588;DHT22;3835;48.850;8.938;2024-03-07T00:10:02;5.40;99.90
7588;DHT22;3835;48.850;8.938;2024-03-07T00:12:30;5.30;99.90
7588;DHT22;3835;48.850;8.938;2024-03-07T00:14:58;5.20;99.90
7588;DHT22;3835;48.850;8.938;2024-03-07T00:17:26;5.30;99.90
7588;DHT22;3835;48.850;8.938;2024-03-07T00:19:55;5.20;99.90
7588;DHT22;3835;48.850;8.938;2024-03-07T00:22:23;5.20;99.90
7588;DHT22;3835;48.850;8.938;2024-03-07T00:24:52;5.10;99.90
7588;DHT22;3835;48.850;8.938;2024-03-07T00:27:19;5.10;99.90
7588;DHT22;3835;48.850;8.938;2024-03-07T00:29:46;5.10;99.90
7588;DHT22;3835;48.850;8.938;2024-03-07T00:32:18;5.00;99.90
7588;DHT22;3835;48.850;8.938;2024-03-07T00:34:47;5.00;99.90
7588;DHT22;3835;48.850;8.938;2024-03-07T00:37:14;5.10;99.90
7588;DHT22;3835;48.850;8.938;2024-03-07T00:39:41;4.90;99.90
7588;DHT22;3835;48.850;8.938;2024-03-07T00:42:08;4.90;99.90
7588;DHT22;3835;48.850;8.938;2024-03-07T00:44:35;4.80;99.90
7588;DHT22;3835;48.850;8.938;2024-03-07T00:47:02;4.90;99.90
7588;DHT22;3835;48.850;8.938;2024-03-07T00:49:30;4.70;99.90
7588;DHT22;3835;48.850;8.938;2024-03-07T00:51:58;4.90;99.90
7588;DHT22;3835;48.850;8.938;2024-03-07T00:54:25;4.60;99.90
7588;DHT22;3835;48.850;8.938;2024-03-07T00:56:52;4.60;99.90
7588;DHT22;3835;48.850;8.938;2024-03-07T00:59:19;4.40;99.90
7588;DHT22;3835;48.850;8.938;2024-03-07T01:01:46;4.30;99.90
7588;DHT22;3835;48.850;8.938;2024-03-07T01:04:14;4.30;99.90
7588;DHT22;3835;48.850;8.938;2024-03-07T01:06:41;4.70;99.90
7588;DHT22;3835;48.850;8.938;2024-03-07T01:09:09;4.20;99.90
7588;DHT22;3835;48.850;8.938;2024-03-07T01:11:40;4.40;99.90
7588;DHT22;3835;48.850;8.938;2024-03-07T01:14:07;4.30;99.90
7588;DHT22;3835;48.850;8.938;2024-03-07T01:16:34;4.50;99.90
7588;DHT22;3835;48.850;8.938;2024-03-07T01:19:01;4.70;99.90
7588;DHT22;3835;48.850;8.938;2024-03-07T01:21:28;4.20;99.90
7588;DHT22;3835;48.850;8.938;2024-03-07T01:23:56;5.00;99.90
7588;DHT22;3835;48.850;8.938;2024-03-07T01:26:24;4.20;99.90
7588;DHT22;3835;48.850;8.938;2024-03-07T01:28:51;4.90;99.90
7588;DHT22;3835;48.850;8.938;2024-03-07T01:31:17;4.10;99.90
7588;DHT22;3835;48.850;8.938;2024-03-07T01:33:44;4.80;99.90
7588;DHT22;3835;48.850;8.938;2024-03-07T01:36:11;4.80;99.90
7588;DHT22;3835;48.850;8.938;2024-03-07T01:38:38;4.60;99.90
7588;DHT22;3835;48.850;8.938;2024-03-07T01:41:05;3.80;99.90
7588;DHT22;3835;48.850;8.938;2024-03-07T01:43:33;4.70;99.90
7588;DHT22;3835;48.850;8.938;2024-03-07T01:46:00;3.70;99.90
7588;DHT22;3835;48.850;8.938;2024-03-07T01:48:28;3.60;99.90
7588;DHT22;3835;48.850;8.938;2024-03-07T01:50:55;3.70;99.90
7588;DHT22;3835;48.850;8.938;2024-03-07T01:53:23;4.10;99.90
7588;DHT22;3835;48.850;8.938;2024-03-07T01:55:50;4.00;99.90
7588;DHT22;3835;48.850;8.938;2024-03-07T01:58:21;4.00;99.90
7588;DHT22;3835;48.850;8.938;2024-03-07T02:00:49;3.50;99.90
7588;DHT22;3835;48.850;8.938;2024-03-07T02:03:16;3.80;99.90
7588;DHT22;3835;48.850;8.938;2024-03-07T02:05:43;4.00;99.90
7588;DHT22;3835;48.850;8.938;2024-03-07T02:08:10;3.40;99.90
7588;DHT22;3835;48.850;8.938;2024-03-07T02:10:37;4.10;99.90
7588;DHT22;3835;48.850;8.938;2024-03-07T02:13:04;4.20;99.90
7588;DHT22;3835;48.850;8.938;2024-03-07T02:15:31;3.60;99.90
7588;DHT22;3835;48.850;8.938;2024-03-07T02:17:59;3.20;99.90
7588;DHT22;3835;48.850;8.938;2024-03-07T02:20:26;3.90;99.90
7588;DHT22;3835;48.850;8.938;2024-03-07T02:22:55;3.40;99.90
7588;DHT22;3835;48.850;8.938;2024-03-07T02:25:21;3.90;99.90
7588;DHT22;3835;48.850;8.938;2024-03-07T02:27:48;3.20;99.90
7588;DHT22;3835;48.850;8.938;2024-03-07T02:30:15;3.40;99.90
7588;DHT22;3835;48.850;8.938;2024-03-07T02:32:45;3.90;99.90
7588;DHT22;3835;48.850;8.938;2024-03-07T02:35:17;3.20;99.90
7588;DHT22;3835;48.850;8.938;2024-03-07T02:37:45;3.30;99.90
7588;DHT22;3835;48.850;8.938;2024-03-07T02:40:14;3.30;99.90
7588;DHT22;3835;48.850;8.938;2024-03-07T02:42:41;3.10;99.90
7588;DHT22;3835;48.850;8.938;2024-03-07T02:45:08;3.90;99.90
7588;DHT22;3835;48.850;8.938;2024-03-07T02:47:40;3.00;99.90
7588;DHT22;3835;48.850;8.938;2024-03-07T02:50:09;3.60;99.90
7588;DHT22;3835;48.850;8.938;2024-03-07T02:52:36;3.10;99.90
7588;DHT22;3835;48.850;8.938;2024-03-07T02:55:05;3.90;99.90
7588;DHT22;3835;48.850;8.938;2024-03-07T02:57:37;3.00;99.90
7588;DHT22;3835;48.850;8.938;2024-03-07T03:00:05;3.10;99.90
7588;DHT22;3835;48.850;8.938;2024-03-07T03:02:39;3.00;99.90
7588;DHT22;3835;48.850;8.938;2024-03-07T03:05:07;3.40;99.90
7588;DHT22;3835;48.850;8.938;2024-03-07T03:07:38;2.90;99.90
7588;DHT22;3835;48.850;8.938;2024-03-07T03:10:06;3.10;99.90
7588;DHT22;3835;48.850;8.938;2024-03-07T03:12:36;2.60;99.90
7588;DHT22;3835;48.850;8.938;2024-03-07T03:15:04;3.10;99.90
7588;DHT22;3835;48.850;8.938;2024-03-07T03:17:31;2.80;99.90
7588;DHT22;3835;48.850;8.938;2024-03-07T03:19:58;2.60;99.90
7588;DHT22;3835;48.850;8.938;2024-03-07T03:22:25;2.50;99.90
7588;DHT22;3835;48.850;8.938;2024-03-07T03:24:53;2.80;99.90
7588;DHT22;3835;48.850;8.938;2024-03-07T03:27:21;2.60;99.90
7588;DHT22;3835;48.850;8.938;2024-03-07T03:29:49;2.50;99.90
7588;DHT22;3835;48.850;8.938;2024-03-07T03:32:17;2.90;99.90
7588;DHT22;3835;48.850;8.938;2024-03-07T03:34:44;2.40;99.90
7588;DHT22;3835;48.850;8.938;2024-03-07T03:37:11;2.80;99.90
7588;DHT22;3835;48.850;8.938;2024-03-07T03:39:38;2.60;99.90
7588;DHT22;3835;48.850;8.938;2024-03-07T03:42:05;2.40;99.90
7588;DHT22;3835;48.850;8.938;2024-03-07T03:44:32;2.30;99.90
7588;DHT22;3835;48.850;8.938;2024-03-07T03:47:02;2.90;99.90
7588;DHT22;3835;48.850;8.938;2024-03-07T03:49:29;2.30;99.90
7588;DHT22;3835;48.850;8.938;2024-03-07T03:51:57;2.80;99.90
7588;DHT22;3835;48.850;8.938;2024-03-07T03:54:24;3.00;99.90
7588;DHT22;3835;48.850;8.938;2024-03-07T03:56:51;2.10;99.90
7588;DHT22;3835;48.850;8.938;2024-03-07T03:59:18;2.40;99.90
7588;DHT22;3835;48.850;8.938;2024-03-07T04:01:45;1.90;99.90
7588;DHT22;3835;48.850;8.938;2024-03-07T04:04:13;1.80;99.90
7588;DHT22;3835;48.850;8.938;2024-03-07T04:06:40;1.70;99.90
7588;DHT22;3835;48.850;8.938;2024-03-07T04:09:07;1.70;99.90
7588;DHT22;3835;48.850;8.938;2024-03-07T04:11:34;1.40;99.90
7588;DHT22;3835;48.850;8.938;2024-03-07T04:14:01;2.20;99.90
7588;DHT22;3835;48.850;8.938;2024-03-07T04:16:28;1.80;99.90
7588;DHT22;3835;48.850;8.938;2024-03-07T04:18:54;1.80;99.90
7588;DHT22;3835;48.850;8.938;2024-03-07T04:21:23;1.70;99.90
7588;DHT22;3835;48.850;8.938;2024-03-07T04:23:51;2.00;99.90
7588;DHT22;3835;48.850;8.938;2024-03-07T04:26:18;2.40;99.90
7588;DHT22;3835;48.850;8.938;2024-03-07T04:28:44;1.70;99.90
7588;DHT22;3835;48.850;8.938;2024-03-07T04:31:11;1.70;99.90
7588;DHT22;3835;48.850;8.938;2024-03-07T04:33:39;1.80;99.90
7588;DHT22;3835;48.850;8.938;2024-03-07T04:36:06;1.60;99.90
7588;DHT22;3835;48.850;8.938;2024-03-07T04:38:35;1.50;99.90
7588;DHT22;3835;48.850;8.938;2024-03-07T04:41:02;1.50;99.90
7588;DHT22;3835;48.850;8.938;2024-03-07T04:43:30;1.40;99.90
7588;DHT22;3835;48.850;8.938;2024-03-07T04:45:57;2.00;99.90
7588;DHT22;3835;48.850;8.938;2024-03-07T04:48:24;1.40;99.90
7588;DHT22;3835;48.850;8.938;2024-03-07T04:50:51;1.80;99.90
7588;DHT22;3835;48.850;8.938;2024-03-07T04:53:17;1.40;99.90
7588;DHT22;3835;48.850;8.938;2024-03-07T04:55:46;1.30;99.90
7588;DHT22;3835;48.850;8.938;2024-03-07T04:58:13;1.40;99.90
7588;DHT22;3835;48.850;8.938;2024-03-07T05:00:40;1.80;99.90
7588;DHT22;3835;48.850;8.938;2024-03-07T05:03:07;1.40;99.90
7588;DHT22;3835;48.850;8.938;2024-03-07T05:05:33;1.40;99.90
7588;DHT22;3835;48.850;8.938;2024-03-07T05:08:00;1.40;99.90
7588;DHT22;3835;48.850;8.938;2024-03-07T05:10:27;1.40;99.90
7588;DHT22;3835;48.850;8.938;2024-03-07T05:13:00;2.10;99.90
7588;DHT22;3835;48.850;8.938;2024-03-07T05:15:26;1.70;99.90
7588;DHT22;3835;48.850;8.938;2024-03-07T05:17:53;1.60;99.90
7588;DHT22;3835;48.850;8.938;2024-03-07T05:20:21;1.30;99.90
7588;DHT22;3835;48.850;8.938;2024-03-07T05:22:48;1.30;99.90
7588;DHT22;3835;48.850;8.938;2024-03-07T05:25:17;2.00;99.90
7588;DHT22;3835;48.850;8.938;2024-03-07T05:27:45;2.00;99.90
7588;DHT22;3835;48.850;8.938;2024-03-07T05:30:13;1.30;99.90
7588;DHT22;3835;48.850;8.938;2024-03-07T05:32:40;1.30;99.90
7588;DHT22;3835;48.850;8.938;2024-03-07T05:35:08;1.30;99.90
7588;DHT22;3835;48.850;8.938;2024-03-07T05:37:36;1.20;99.90
7588;DHT22;3835;48.850;8.938;2024-03-07T05:40:08;1.10;99.90
7588;DHT22;3835;48.850;8.938;2024-03-07T05:42:35;0.90;99.90
7588;DHT22;3835;48.850;8.938;2024-03-07T05:45:02;0.90;99.90
7588;DHT22;3835;48.850;8.938;2024-03-07T05:47:34;0.80;99.90
7588;DHT22;3835;48.850;8.938;2024-03-07T05:50:01;1.20;99.90
7588;DHT22;3835;48.850;8.938;2024-03-07T05:52:29;0.70;99.90
7588;DHT22;3835;48.850;8.938;2024-03-07T05:54:56;0.70;99.90
7588;DHT22;3835;48.850;8.938;2024-03-07T05:57:23;0.60;99.90
7588;DHT22;3835;48.850;8.938;2024-03-07T05:59:50;0.60;99.90
7588;DHT22;3835;48.850;8.938;2024-03-07T06:02:17;0.60;99.90
7588;DHT22;3835;48.850;8.938;2024-03-07T06:04:47;0.60;99.90
7588;DHT22;3835;48.850;8.938;2024-03-07T06:07:13;0.70;99.90
7588;DHT22;3835;48.850;8.938;2024-03-07T06:09:40;0.80;99.90
7588;DHT22;3835;48.850;8.938;2024-03-07T06:12:09;1.20;99.90
7588;DHT22;3835;48.850;8.938;2024-03-07T06:14:51;1.50;99.90
7588;DHT22;3835;48.850;8.938;2024-03-07T06:17:18;0.80;99.90
7588;DHT22;3835;48.850;8.938;2024-03-07T06:19:49;1.30;99.90
7588;DHT22;3835;48.850;8.938;2024-03-07T06:22:16;0.80;99.90
7588;DHT22;3835;48.850;8.938;2024-03-07T06:24:43;1.20;99.90
7588;DHT22;3835;48.850;8.938;2024-03-07T06:27:10;1.00;99.90
7588;DHT22;3835;48.850;8.938;2024-03-07T06:29:42;1.00;99.90
7588;DHT22;3835;48.850;8.938;2024-03-07T06:32:08;1.50;99.90
7588;DHT22;3835;48.850;8.938;2024-03-07T06:34:36;1.10;99.90
7588;DHT22;3835;48.850;8.938;2024-03-07T06:37:05;1.10;99.90
7588;DHT22;3835;48.850;8.938;2024-03-07T06:39:32;1.20;99.90
7588;DHT22;3835;48.850;8.938;2024-03-07T06:42:00;1.30;99.90
7588;DHT22;3835;48.850;8.938;2024-03-07T06:44:27;1.40;99.90
7588;DHT22;3835;48.850;8.938;2024-03-07T06:46:54;1.40;99.90
7588;DHT22;3835;48.850;8.938;2024-03-07T06:49:21;1.50;99.90
7588;DHT22;3835;48.850;8.938;2024-03-07T06:51:47;1.50;99.90
7588;DHT22;3835;48.850;8.938;2024-03-07T06:54:16;1.70;99.90
7588;DHT22;3835;48.850;8.938;2024-03-07T06:56:42;1.60;99.90
7588;DHT22;3835;48.850;8.938;2024-03-07T06:59:10;2.00;99.90
7588;DHT22;3835;48.850;8.938;2024-03-07T07:01:38;1.70;99.90
7588;DHT22;3835;48.850;8.938;2024-03-07T07:04:08;1.90;99.90
7588;DHT22;3835;48.850;8.938;2024-03-07T07:06:35;2.00;99.90
7588;DHT22;3835;48.850;8.938;2024-03-07T07:09:02;2.40;99.90
7588;DHT22;3835;48.850;8.938;2024-03-07T07:11:32;2.10;99.90
7588;DHT22;3835;48.850;8.938;2024-03-07T07:14:00;2.40;99.90
7588;DHT22;3835;48.850;8.938;2024-03-07T07:16:27;2.90;99.90
7588;DHT22;3835;48.850;8.938;2024-03-07T07:18:55;2.80;99.90
7588;DHT22;3835;48.850;8.938;2024-03-07T07:21:22;2.40;99.90
7588;DHT22;3835;48.850;8.938;2024-03-07T07:23:49;2.40;99.90
7588;DHT22;3835;48.850;8.938;2024-03-07T07:26:16;2.70;99.90
7588;DHT22;3835;48.850;8.938;2024-03-07T07:28:44;2.30;99.90
7588;DHT22;3835;48.850;8.938;2024-03-07T07:31:11;2.40;99.90
7588;DHT22;3835;48.850;8.938;2024-03-07T07:33:37;2.70;99.90
7588;DHT22;3835;48.850;8.938;2024-03-07T07:36:04;2.40;99.90
7588;DHT22;3835;48.850;8.938;2024-03-07T07:38:31;2.50;99.90
7588;DHT22;3835;48.850;8.938;2024-03-07T07:40:58;2.50;99.90
7588;DHT22;3835;48.850;8.938;2024-03-07T07:43:26;3.00;99.90
7588;DHT22;3835;48.850;8.938;2024-03-07T07:45:55;2.90;99.90
7588;DHT22;3835;48.850;8.938;2024-03-07T07:48:22;2.60;99.90
7588;DHT22;3835;48.850;8.938;2024-03-07T07:50:49;2.80;99.90
7588;DHT22;3835;48.850;8.938;2024-03-07T07:53:17;2.60;99.90
7588;DHT22;3835;48.850;8.938;2024-03-07T07:55:44;3.20;99.90
7588;DHT22;3835;48.850;8.938;2024-03-07T07:58:12;3.10;99.90
7588;DHT22;3835;48.850;8.938;2024-03-07T08:00:38;2.80;99.90
7588;DHT22;3835;48.850;8.938;2024-03-07T08:03:10;2.80;99.90
7588;DHT22;3835;48.850;8.938;2024-03-07T08:05:37;3.40;99.90
7588;DHT22;3835;48.850;8.938;2024-03-07T08:08:06;3.00;99.90
7588;DHT22;3835;48.850;8.938;2024-03-07T08:10:34;3.00;99.90
7588;DHT22;3835;48.850;8.938;2024-03-07T08:13:02;2.90;99.90
7588;DHT22;3835;48.850;8.938;2024-03-07T08:15:31;3.10;99.90
7588;DHT22;3835;48.850;8.938;2024-03-07T08:17:58;3.60;99.90
7588;DHT22;3835;48.850;8.938;2024-03-07T08:20:27;3.00;99.90
7588;DHT22;3835;48.850;8.938;2024-03-07T08:22:54;3.00;99.90
7588;DHT22;3835;48.850;8.938;2024-03-07T08:25:22;3.10;99.90
7588;DHT22;3835;48.850;8.938;2024-03-07T08:27:50;3.20;99.90
7588;DHT22;3835;48.850;8.938;2024-03-07T08:30:17;3.20;99.90
7588;DHT22;3835;48.850;8.938;2024-03-07T08:32:45;3.10;99.90
7588;DHT22;3835;48.850;8.938;2024-03-07T08:35:12;3.20;99.90
7588;DHT22;3835;48.850;8.938;2024-03-07T08:37:43;3.40;99.90
7588;DHT22;3835;48.850;8.938;2024-03-07T08:40:11;3.30;99.90
7588;DHT22;3835;48.850;8.938;2024-03-07T08:42:46;3.20;99.90
7588;DHT22;3835;48.850;8.938;2024-03-07T08:45:13;3.20;99.90
7588;DHT22;3835;48.850;8.938;2024-03-07T08:47:43;3.70;99.90
7588;DHT22;3835;48.850;8.938;2024-03-07T08:50:10;3.40;99.90
7588;DHT22;3835;48.850;8.938;2024-03-07T08:52:38;3.40;99.90
7588;DHT22;3835;48.850;8.938;2024-03-07T08:55:08;3.70;99.90
7588;DHT22;3835;48.850;8.938;2024-03-07T08:57:38;3.80;99.90
7588;DHT22;3835;48.850;8.938;2024-03-07T09:00:06;3.90;99.90
7588;DHT22;3835;48.850;8.938;2024-03-07T09:02:35;3.90;99.90
7588;DHT22;3835;48.850;8.938;2024-03-07T09:05:02;3.80;99.90
7588;DHT22;3835;48.850;8.938;2024-03-07T09:07:29;3.70;99.90
7588;DHT22;3835;48.850;8.938;2024-03-07T09:09:56;3.80;99.90
7588;DHT22;3835;48.850;8.938;2024-03-07T09:12:25;3.90;99.90
7588;DHT22;3835;48.850;8.938;2024-03-07T09:14:52;4.10;99.90
7588;DHT22;3835;48.850;8.938;2024-03-07T09:17:20;4.20;99.90
7588;DHT22;3835;48.850;8.938;2024-03-07T09:19:47;4.00;99.90
7588;DHT22;3835;48.850;8.938;2024-03-07T09:22:14;4.30;99.90
7588;DHT22;3835;48.850;8.938;2024-03-07T09:24:41;4.30;99.90
7588;DHT22;3835;48.850;8.938;2024-03-07T09:27:08;4.30;99.90
7588;DHT22;3835;48.850;8.938;2024-03-07T09:29:37;4.50;99.90
7588;DHT22;3835;48.850;8.938;2024-03-07T09:32:05;4.70;99.90
7588;DHT22;3835;48.850;8.938;2024-03-07T09:34:34;4.40;99.90
7588;DHT22;3835;48.850;8.938;2024-03-07T09:37:01;4.40;99.90
7588;DHT22;3835;48.850;8.938;2024-03-07T09:39:29;4.50;99.90
7588;DHT22;3835;48.850;8.938;2024-03-07T09:41:57;4.80;99.90
7588;DHT22;3835;48.850;8.938;2024-03-07T09:44:26;4.90;99.90
7588;DHT22;3835;48.850;8.938;2024-03-07T09:46:55;4.70;99.90
7588;DHT22;3835;48.850;8.938;2024-03-07T09:49:24;4.70;99.90
7588;DHT22;3835;48.850;8.938;2024-03-07T09:51:52;5.10;99.90
7588;DHT22;3835;48.850;8.938;2024-03-07T09:54:20;5.30;99.90
7588;DHT22;3835;48.850;8.938;2024-03-07T09:56:50;5.00;99.90
7588;DHT22;3835;48.850;8.938;2024-03-07T09:59:19;5.00;99.90
7588;DHT22;3835;48.850;8.938;2024-03-07T10:01:48;5.00;99.90
7588;DHT22;3835;48.850;8.938;2024-03-07T10:04:25;5.10;99.90
7588;DHT22;3835;48.850;8.938;2024-03-07T10:06:54;5.10;99.90
7588;DHT22;3835;48.850;8.938;2024-03-07T10:09:22;5.10;99.90
7588;DHT22;3835;48.850;8.938;2024-03-07T10:11:56;4.70;99.90
7588;DHT22;3835;48.850;8.938;2024-03-07T10:14:23;4.80;99.90
7588;DHT22;3835;48.850;8.938;2024-03-07T10:16:53;4.70;99.90
7588;DHT22;3835;48.850;8.938;2024-03-07T10:19:23;4.80;99.90
7588;DHT22;3835;48.850;8.938;2024-03-07T10:21:50;4.40;99.90
7588;DHT22;3835;48.850;8.938;2024-03-07T10:24:24;5.00;99.90
7588;DHT22;3835;48.850;8.938;2024-03-07T10:26:52;4.80;99.90
7588;DHT22;3835;48.850;8.938;2024-03-07T10:29:22;5.30;99.90
7588;DHT22;3835;48.850;8.938;2024-03-07T10:31:49;5.10;99.90
7588;DHT22;3835;48.850;8.938;2024-03-07T10:34:16;5.10;99.90
7588;DHT22;3835;48.850;8.938;2024-03-07T10:36:44;4.70;99.90
7588;DHT22;3835;48.850;8.938;2024-03-07T10:39:12;5.40;99.90
7588;DHT22;3835;48.850;8.938;2024-03-07T10:41:45;5.30;99.90
7588;DHT22;3835;48.850;8.938;2024-03-07T10:44:18;5.00;99.90
7588;DHT22;3835;48.850;8.938;2024-03-07T10:46:51;5.20;99.90
7588;DHT22;3835;48.850;8.938;2024-03-07T10:49:20;5.30;99.90
7588;DHT22;3835;48.850;8.938;2024-03-07T10:51:58;5.00;99.90
7588;DHT22;3835;48.850;8.938;2024-03-07T10:54:36;5.40;99.90
7588;DHT22;3835;48.850;8.938;2024-03-07T10:57:17;5.60;99.90
7588;DHT22;3835;48.850;8.938;2024-03-07T10:59:50;6.00;99.90
7588;DHT22;3835;48.850;8.938;2024-03-07T11:02:24;6.20;99.90
7588;DHT22;3835;48.850;8.938;2024-03-07T11:04:56;6.20;99.90
7588;DHT22;3835;48.850;8.938;2024-03-07T11:07:25;6.10;99.90
7588;DHT22;3835;48.850;8.938;2024-03-07T11:09:53;6.10;99.90
7588;DHT22;3835;48.850;8.938;2024-03-07T11:12:24;6.00;99.90
7588;DHT22;3835;48.850;8.938;2024-03-07T11:14:53;6.30;99.90
7588;DHT22;3835;48.850;8.938;2024-03-07T11:17:22;6.20;99.90
7588;DHT22;3835;48.850;8.938;2024-03-07T11:19:50;6.20;99.90
7588;DHT22;3835;48.850;8.938;2024-03-07T11:22:31;6.30;99.90
7588;DHT22;3835;48.850;8.938;2024-03-07T11:25:04;6.50;99.90
7588;DHT22;3835;48.850;8.938;2024-03-07T11:27:36;6.30;99.90
7588;DHT22;3835;48.850;8.938;2024-03-07T11:30:08;6.30;99.90
7588;DHT22;3835;48.850;8.938;2024-03-07T11:32:35;6.40;99.90
7588;DHT22;3835;48.850;8.938;2024-03-07T11:35:12;6.40;99.90
7588;DHT22;3835;48.850;8.938;2024-03-07T11:37:42;6.70;99.90
7588;DHT22;3835;48.850;8.938;2024-03-07T11:40:12;6.60;99.90
7588;DHT22;3835;48.850;8.938;2024-03-07T11:42:46;6.60;99.90
7588;DHT22;3835;48.850;8.938;2024-03-07T11:45:15;6.60;99.90
7588;DHT22;3835;48.850;8.938;2024-03-07T11:47:51;6.60;99.90
7588;DHT22;3835;48.850;8.938;2024-03-07T11:50:23;6.40;99.90
7588;DHT22;3835;48.850;8.938;2024-03-07T11:52:52;6.20;99.90
7588;DHT22;3835;48.850;8.938;2024-03-07T11:55:20;5.50;99.90
7588;DHT22;3835;48.850;8.938;2024-03-07T11:57:48;6.30;99.90
7588;DHT22;3835;48.850;8.938;2024-03-07T12:00:17;6.70;99.90
7588;DHT22;3835;48.850;8.938;2024-03-07T12:02:46;6.60;99.90
7588;DHT22;3835;48.850;8.938;2024-03-07T12:05:14;6.40;99.90
7588;DHT22;3835;48.850;8.938;2024-03-07T12:07:43;6.80;99.90
7588;DHT22;3835;48.850;8.938;2024-03-07T12:10:11;6.90;99.90
7588;DHT22;3835;48.850;8.938;2024-03-07T12:12:39;7.20;99.90
7588;DHT22;3835;48.850;8.938;2024-03-07T12:15:09;7.10;99.90
7588;DHT22;3835;48.850;8.938;2024-03-07T12:17:46;6.90;99.90
7588;DHT22;3835;48.850;8.938;2024-03-07T12:20:15;6.80;99.90
7588;DHT22;3835;48.850;8.938;2024-03-07T12:22:56;6.80;99.90
7588;DHT22;3835;48.850;8.938;2024-03-07T12:25:24;6.80;99.90
7588;DHT22;3835;48.850;8.938;2024-03-07T12:28:03;6.70;99.90
7588;DHT22;3835;48.850;8.938;2024-03-07T12:30:33;6.70;99.90
7588;DHT22;3835;48.850;8.938;2024-03-07T12:33:01;6.60;99.90
7588;DHT22;3835;48.850;8.938;2024-03-07T12:35:30;6.40;99.90
7588;DHT22;3835;48.850;8.938;2024-03-07T12:37:58;6.50;99.90
7588;DHT22;3835;48.850;8.938;2024-03-07T12:40:26;6.50;99.90
7588;DHT22;3835;48.850;8.938;2024-03-07T12:42:55;6.30;99.90
7588;DHT22;3835;48.850;8.938;2024-03-07T12:45:22;6.40;99.90
7588;DHT22;3835;48.850;8.938;2024-03-07T12:47:51;6.30;99.90
7588;DHT22;3835;48.850;8.938;2024-03-07T12:50:20;6.40;99.90
7588;DHT22;3835;48.850;8.938;2024-03-07T12:52:47;5.80;99.90
7588;DHT22;3835;48.850;8.938;2024-03-07T12:55:16;6.60;99.90
7588;DHT22;3835;48.850;8.938;2024-03-07T12:57:48;6.60;99.90
7588;DHT22;3835;48.850;8.938;2024-03-07T13:00:16;7.00;99.90
7588;DHT22;3835;48.850;8.938;2024-03-07T13:02:46;6.30;99.90
7588;DHT22;3835;48.850;8.938;2024-03-07T13:05:13;6.30;99.90
7588;DHT22;3835;48.850;8.938;2024-03-07T13:07:45;6.40;99.90
7588;DHT22;3835;48.850;8.938;2024-03-07T13:10:13;6.50;99.90
7588;DHT22;3835;48.850;8.938;2024-03-07T13:12:42;6.30;99.90
7588;DHT22;3835;48.850;8.938;2024-03-07T13:15:12;6.40;99.90
7588;DHT22;3835;48.850;8.938;2024-03-07T13:17:39;6.50;99.90
7588;DHT22;3835;48.850;8.938;2024-03-07T13:20:09;6.40;99.90
7588;DHT22;3835;48.850;8.938;2024-03-07T13:22:39;6.50;99.90
7588;DHT22;3835;48.850;8.938;2024-03-07T13:25:09;6.50;99.90
7588;DHT22;3835;48.850;8.938;2024-03-07T13:27:41;6.50;99.90
7588;DHT22;3835;48.850;8.938;2024-03-07T13:30:12;6.50;99.90
7588;DHT22;3835;48.850;8.938;2024-03-07T13:32:50;6.50;99.90
7588;DHT22;3835;48.850;8.938;2024-03-07T13:35:19;5.90;99.90
7588;DHT22;3835;48.850;8.938;2024-03-07T13:37:48;6.50;99.90
7588;DHT22;3835;48.850;8.938;2024-03-07T13:40:15;6.60;99.90
7588;DHT22;3835;48.850;8.938;2024-03-07T13:42:52;6.50;99.90
7588;DHT22;3835;48.850;8.938;2024-03-07T13:45:23;6.50;99.90
7588;DHT22;3835;48.850;8.938;2024-03-07T13:47:52;6.90;99.90
7588;DHT22;3835;48.850;8.938;2024-03-07T13:50:20;6.40;99.90
7588;DHT22;3835;48.850;8.938;2024-03-07T13:52:50;7.00;99.90
7588;DHT22;3835;48.850;8.938;2024-03-07T13:55:55;6.60;99.90
7588;DHT22;3835;48.850;8.938;2024-03-07T13:58:37;6.50;99.90
7588;DHT22;3835;48.850;8.938;2024-03-07T14:01:28;6.70;99.90
7588;DHT22;3835;48.850;8.938;2024-03-07T14:04:45;7.40;99.90
7588;DHT22;3835;48.850;8.938;2024-03-07T14:07:35;6.60;99.90
7588;DHT22;3835;48.850;8.938;2024-03-07T14:10:22;6.70;99.90
7588;DHT22;3835;48.850;8.938;2024-03-07T14:13:03;6.80;99.90
7588;DHT22;3835;48.850;8.938;2024-03-07T14:16:03;6.80;99.90
7588;DHT22;3835;48.850;8.938;2024-03-07T14:22:05;6.80;99.90
7588;DHT22;3835;48.850;8.938;2024-03-07T14:25:09;6.90;99.90
7588;DHT22;3835;48.850;8.938;2024-03-07T14:27:55;6.80;99.90
7588;DHT22;3835;48.850;8.938;2024-03-07T14:30:36;6.70;99.90
7588;DHT22;3835;48.850;8.938;2024-03-07T14:33:06;6.80;99.90
7588;DHT22;3835;48.850;8.938;2024-03-07T14:38:28;6.90;99.90
7588;DHT22;3835;48.850;8.938;2024-03-07T14:40:55;6.70;99.90
7588;DHT22;3835;48.850;8.938;2024-03-07T14:43:23;6.70;99.90
7588;DHT22;3835;48.850;8.938;2024-03-07T14:45:51;6.80;99.90
7588;DHT22;3835;48.850;8.938;2024-03-07T14:48:22;6.60;99.90
7588;DHT22;3835;48.850;8.938;2024-03-07T14:50:49;6.60;99.90
7588;DHT22;3835;48.850;8.938;2024-03-07T14:53:18;6.60;99.90
7588;DHT22;3835;48.850;8.938;2024-03-07T14:55:48;6.60;99.90
7588;DHT22;3835;48.850;8.938;2024-03-07T14:58:15;6.70;99.90
7588;DHT22;3835;48.850;8.938;2024-03-07T15:00:42;6.90;99.90
7588;DHT22;3835;48.850;8.938;2024-03-07T15:03:10;7.00;99.90
7588;DHT22;3835;48.850;8.938;2024-03-07T15:05:39;7.00;99.90
7588;DHT22;3835;48.850;8.938;2024-03-07T15:08:07;7.00;99.90
7588;DHT22;3835;48.850;8.938;2024-03-07T15:10:36;7.00;99.90
7588;DHT22;3835;48.850;8.938;2024-03-07T15:13:05;7.00;99.90
7588;DHT22;3835;48.850;8.938;2024-03-07T15:15:34;6.90;99.90
7588;DHT22;3835;48.850;8.938;2024-03-07T15:18:01;7.00;99.90
7588;DHT22;3835;48.850;8.938;2024-03-07T15:20:28;6.90;99.90
7588;DHT22;3835;48.850;8.938;2024-03-07T15:22:57;6.90;99.90
7588;DHT22;3835;48.850;8.938;2024-03-07T15:25:25;6.80;99.90
7588;DHT22;3835;48.850;8.938;2024-03-07T15:27:52;6.70;99.90
7588;DHT22;3835;48.850;8.938;2024-03-07T15:30:24;6.60;99.90
7588;DHT22;3835;48.850;8.938;2024-03-07T15:32:58;6.80;99.90
7588;DHT22;3835;48.850;8.938;2024-03-07T15:35:25;6.60;99.90
7588;DHT22;3835;48.850;8.938;2024-03-07T15:37:52;6.70;99.90
7588;DHT22;3835;48.850;8.938;2024-03-07T15:40:20;6.70;99.90
7588;DHT22;3835;48.850;8.938;2024-03-07T15:42:49;6.60;99.90
7588;DHT22;3835;48.850;8.938;2024-03-07T15:45:18;6.60;99.90
7588;DHT22;3835;48.850;8.938;2024-03-07T15:47:49;6.70;99.90
7588;DHT22;3835;48.850;8.938;2024-03-07T15:50:17;6.60;99.90
7588;DHT22;3835;48.850;8.938;2024-03-07T15:52:45;6.70;99.90
7588;DHT22;3835;48.850;8.938;2024-03-07T15:55:13;6.80;99.90
7588;DHT22;3835;48.850;8.938;2024-03-07T15:57:47;6.70;99.90
7588;DHT22;3835;48.850;8.938;2024-03-07T16:00:16;6.60;99.90
7588;DHT22;3835;48.850;8.938;2024-03-07T16:02:54;6.70;99.90
7588;DHT22;3835;48.850;8.938;2024-03-07T16:05:22;6.60;99.90
7588;DHT22;3835;48.850;8.938;2024-03-07T16:07:50;6.50;99.90
7588;DHT22;3835;48.850;8.938;2024-03-07T16:10:17;6.50;99.90
7588;DHT22;3835;48.850;8.938;2024-03-07T16:12:44;6.40;99.90
7588;DHT22;3835;48.850;8.938;2024-03-07T16:15:11;6.30;99.90
7588;DHT22;3835;48.850;8.938;2024-03-07T16:17:38;6.30;99.90
7588;DHT22;3835;48.850;8.938;2024-03-07T16:20:07;6.80;99.90
7588;DHT22;3835;48.850;8.938;2024-03-07T16:22:39;6.30;99.90
7588;DHT22;3835;48.850;8.938;2024-03-07T16:25:07;6.20;99.90
7588;DHT22;3835;48.850;8.938;2024-03-07T16:27:36;6.20;99.90
7588;DHT22;3835;48.850;8.938;2024-03-07T16:30:03;6.10;99.90
7588;DHT22;3835;48.850;8.938;2024-03-07T16:32:33;6.10;99.90
7588;DHT22;3835;48.850;8.938;2024-03-07T16:35:01;6.10;99.90